createdAt,value
2023-04-09T00:00:50.603Z,100828.66
2023-04-09T00:03:18.816Z,100823.50
2023-04-09T00:05:46.903Z,100828.94
2023-04-09T00:08:14.542Z,100829.16
2023-04-09T00:10:42.281Z,100832.91
2023-04-09T00:13:10.077Z,100829.63
2023-04-09T00:15:37.797Z,100833.31
2023-04-09T00:18:05.740Z,100835.34
2023-04-09T00:20:33.492Z,100834.66
2023-04-09T00:23:01.510Z,100829.59
2023-04-09T00:25:29.659Z,100836.75
2023-04-09T00:27:57.698Z,100825.47
2023-04-09T00:30:25.429Z,100830.00
2023-04-09T00:32:53.136Z,100834.47
2023-04-09T00:35:20.852Z,100823.13
2023-04-09T00:37:48.410Z,100824.09
2023-04-09T00:40:16.049Z,100818.94
2023-04-09T00:42:43.780Z,100825.19
2023-04-09T00:45:11.392Z,100821.78
2023-04-09T00:47:39.540Z,100814.00
2023-04-09T00:50:07.233Z,100818.44
2023-04-09T00:52:35.214Z,100821.22
2023-04-09T00:55:03.286Z,100822.19
2023-04-09T00:57:31.032Z,100817.97
2023-04-09T00:59:58.643Z,100823.22
2023-04-09T01:02:26.345Z,100811.88
2023-04-09T01:04:54.397Z,100815.56
2023-04-09T01:07:22.078Z,100819.16
2023-04-09T01:09:50.121Z,100820.16
2023-04-09T01:12:17.785Z,100813.28
2023-04-09T01:14:45.444Z,100819.50
2023-04-09T01:17:13.389Z,100817.78
2023-04-09T01:19:41.494Z,100813.50
2023-04-09T01:22:09.108Z,100815.25
2023-04-09T01:24:36.723Z,100814.41
2023-04-09T01:27:04.356Z,100816.19
2023-04-09T01:29:32.339Z,100818.84
2023-04-09T01:31:59.904Z,100818.94
2023-04-09T01:34:27.560Z,100819.84
2023-04-09T01:36:55.226Z,100815.56
2023-04-09T01:39:22.833Z,100815.66
2023-04-09T01:41:50.766Z,100820.16
2023-04-09T01:44:18.607Z,100820.28
2023-04-09T01:46:46.211Z,100814.22
2023-04-09T01:49:13.873Z,100816.03
2023-04-09T01:51:41.488Z,100818.78
2023-04-09T01:54:09.764Z,100812.66
2023-04-09T01:56:37.479Z,100809.97
2023-04-09T01:59:05.069Z,100813.41
2023-04-09T02:01:32.742Z,100806.34
2023-04-09T02:04:00.553Z,100813.19
2023-04-09T02:06:28.760Z,100810.56
2023-04-09T02:08:56.347Z,100805.41
2023-04-09T02:11:23.973Z,100809.00
2023-04-09T02:13:51.610Z,100805.59
2023-04-09T02:16:19.855Z,100810.84
2023-04-09T02:18:47.978Z,100810.84
2023-04-09T02:21:15.583Z,100815.25
2023-04-09T02:23:58.460Z,100806.44
2023-04-09T02:26:26.072Z,100814.28
2023-04-09T02:28:54.103Z,100809.88
2023-04-09T02:31:22.231Z,100808.97
2023-04-09T02:33:49.844Z,100807.13
2023-04-09T02:36:17.436Z,100799.22
2023-04-09T02:38:45.080Z,100797.53
2023-04-09T02:41:12.716Z,100799.34
2023-04-09T02:43:40.333Z,100798.63
2023-04-09T02:46:07.979Z,100794.41
2023-04-09T02:48:35.608Z,100798.16
2023-04-09T02:51:03.239Z,100791.50
2023-04-09T02:53:30.851Z,100788.28
2023-04-09T02:55:58.441Z,100786.81
2023-04-09T02:58:26.434Z,100788.84
2023-04-09T03:00:54.031Z,100782.09
2023-04-09T03:03:21.683Z,100785.84
2023-04-09T03:05:49.739Z,100795.69
2023-04-09T03:08:17.375Z,100790.66
2023-04-09T03:10:44.932Z,100785.59
2023-04-09T03:13:12.614Z,100785.81
2023-04-09T03:15:40.300Z,100784.25
2023-04-09T03:18:07.963Z,100781.75
2023-04-09T03:20:36.781Z,100782.72
2023-04-09T03:23:04.385Z,100781.06
2023-04-09T03:25:31.929Z,100774.97
2023-04-09T03:27:59.730Z,100775.81
2023-04-09T03:30:27.754Z,100775.81
2023-04-09T03:32:55.409Z,100776.69
2023-04-09T03:35:23.067Z,100769.66
2023-04-09T03:37:50.725Z,100775.72
2023-04-09T03:40:18.313Z,100770.47
2023-04-09T03:42:46.765Z,100767.88
2023-04-09T03:45:14.491Z,100771.44
2023-04-09T03:47:42.184Z,100776.72
2023-04-09T03:50:09.837Z,100775.03
2023-04-09T03:52:37.435Z,100769.06
2023-04-09T03:55:05.700Z,100769.16
2023-04-09T03:57:33.430Z,100772.81
2023-04-09T04:00:01.107Z,100767.66
2023-04-09T04:02:31.450Z,100766.88
2023-04-09T04:04:59.538Z,100764.38
2023-04-09T04:07:27.759Z,100769.75
2023-04-09T04:09:55.566Z,100772.53
2023-04-09T04:12:23.173Z,100772.59
2023-04-09T04:14:50.759Z,100772.72
2023-04-09T04:17:18.336Z,100769.19
2023-04-09T04:19:46.267Z,100772.69
2023-04-09T04:22:14.083Z,100768.28
2023-04-09T04:24:41.690Z,100779.66
2023-04-09T04:27:09.648Z,100783.13
2023-04-09T04:29:37.761Z,100784.03
2023-04-09T04:32:05.315Z,100775.38
2023-04-09T04:34:32.900Z,100776.41
2023-04-09T04:37:00.488Z,100779.97
2023-04-09T04:39:28.099Z,100779.09
2023-04-09T04:41:55.811Z,100778.31
2023-04-09T04:44:23.764Z,100781.72
2023-04-09T04:46:51.608Z,100789.53
2023-04-09T04:49:19.584Z,100783.50
2023-04-09T04:51:47.177Z,100789.72
2023-04-09T04:54:14.757Z,100793.25
2023-04-09T04:56:42.694Z,100793.31
2023-04-09T04:59:10.474Z,100786.41
2023-04-09T05:01:38.238Z,100788.19
2023-04-09T05:04:05.921Z,100790.78
2023-04-09T05:06:33.723Z,100786.41
2023-04-09T05:09:01.992Z,100789.91
2023-04-09T05:11:30.837Z,100790.78
2023-04-09T05:13:58.483Z,100795.09
2023-04-09T05:16:26.103Z,100781.03
2023-04-09T05:18:54.075Z,100781.69
2023-04-09T05:21:22.410Z,100780.59
2023-04-09T05:23:50.026Z,100782.16
2023-04-09T05:26:17.575Z,100779.44
2023-04-09T05:28:45.208Z,100786.34
2023-04-09T05:31:13.493Z,100795.06
2023-04-09T05:33:41.578Z,100793.19
2023-04-09T05:36:09.452Z,100781.69
2023-04-09T05:38:37.040Z,100789.41
2023-04-09T05:41:04.608Z,100783.97
2023-04-09T05:43:32.218Z,100787.22
2023-04-09T05:46:00.239Z,100787.78
2023-04-09T05:48:28.042Z,100790.97
2023-04-09T05:50:56.057Z,100788.84
2023-04-09T05:53:23.738Z,100792.03
2023-04-09T05:55:51.784Z,100788.16
2023-04-09T05:58:20.364Z,100784.22
2023-04-09T06:00:47.982Z,100792.56
2023-04-09T06:03:15.714Z,100792.91
2023-04-09T06:05:43.477Z,100795.09
2023-04-09T06:08:11.219Z,100789.41
2023-04-09T06:10:41.034Z,100792.44
2023-04-09T06:13:09.030Z,100791.13
2023-04-09T06:15:36.613Z,100801.00
2023-04-09T06:18:04.486Z,100798.75
2023-04-09T06:20:32.139Z,100797.41
2023-04-09T06:23:00.109Z,100793.47
2023-04-09T06:25:27.740Z,100794.72
2023-04-09T06:27:55.382Z,100800.47
2023-04-09T06:30:23.171Z,100796.53
2023-04-09T06:32:55.024Z,100796.91
2023-04-09T06:35:23.293Z,100787.44
2023-04-09T06:37:51.082Z,100793.66
2023-04-09T06:40:20.685Z,100796.28
2023-04-09T06:42:49.980Z,100793.69
2023-04-09T06:45:17.572Z,100793.72
2023-04-09T06:47:45.199Z,100795.56
2023-04-09T06:50:12.999Z,100792.19
2023-04-09T06:52:40.580Z,100791.41
2023-04-09T06:55:08.172Z,100788.94
2023-04-09T06:57:35.984Z,100795.41
2023-04-09T07:00:04.095Z,100791.19
2023-04-09T07:02:31.858Z,100791.34
2023-04-09T07:05:01.098Z,100793.31
2023-04-09T07:07:28.692Z,100788.09
2023-04-09T07:09:56.376Z,100787.22
2023-04-09T07:12:24.399Z,100785.66
2023-04-09T07:14:52.296Z,100791.84
2023-04-09T07:17:19.957Z,100786.63
2023-04-09T07:19:47.641Z,100779.63
2023-04-09T07:22:15.556Z,100781.38
2023-04-09T07:24:43.877Z,100781.53
2023-04-09T07:27:11.519Z,100777.16
2023-04-09T07:29:39.162Z,100778.13
2023-04-09T07:32:06.742Z,100782.50
2023-04-09T07:34:34.376Z,100789.50
2023-04-09T07:37:02.331Z,100785.00
2023-04-09T07:39:29.993Z,100788.47
2023-04-09T07:41:57.757Z,100790.03
2023-04-09T07:44:25.703Z,100795.28
2023-04-09T07:46:53.832Z,100791.59
2023-04-09T07:49:22.063Z,100787.84
2023-04-09T07:51:49.722Z,100786.75
2023-04-09T07:54:17.311Z,100783.06
2023-04-09T07:56:44.969Z,100778.28
2023-04-09T07:59:12.653Z,100780.75
2023-04-09T08:01:40.729Z,100781.34
2023-04-09T08:04:08.878Z,100781.94
2023-04-09T08:06:37.758Z,100784.44
2023-04-09T08:09:05.725Z,100786.00
2023-04-09T08:11:33.384Z,100778.66
2023-04-09T08:14:03.497Z,100776.66
2023-04-09T08:16:31.804Z,100769.41
2023-04-09T08:18:59.531Z,100769.19
2023-04-09T08:21:27.195Z,100765.25
2023-04-09T08:23:59.430Z,100766.63
2023-04-09T08:26:27.536Z,100764.31
2023-04-09T08:28:55.508Z,100762.47
2023-04-09T08:31:23.292Z,100766.91
2023-04-09T08:33:51.147Z,100766.63
2023-04-09T08:36:18.853Z,100757.13
2023-04-09T08:38:47.718Z,100759.03
2023-04-09T08:41:15.655Z,100760.09
2023-04-09T08:43:57.115Z,100758.09
2023-04-09T08:46:26.670Z,100766.63
2023-04-09T08:48:54.658Z,100756.03
2023-04-09T08:51:23.666Z,100759.94
2023-04-09T08:53:53.550Z,100765.19
2023-04-09T08:56:22.077Z,100757.50
2023-04-09T08:58:49.764Z,100766.28
2023-04-09T09:01:17.814Z,100749.19
2023-04-09T09:03:45.626Z,100752.03
2023-04-09T09:06:13.495Z,100758.50
2023-04-09T09:08:41.177Z,100743.03
2023-04-09T09:11:08.820Z,100749.75
2023-04-09T09:13:37.202Z,100737.00
2023-04-09T09:16:05.048Z,100745.50
2023-04-09T09:18:32.683Z,100744.63
2023-04-09T09:21:00.473Z,100751.06
2023-04-09T09:23:28.567Z,100756.16
2023-04-09T09:25:56.615Z,100752.19
2023-04-09T09:28:24.208Z,100755.31
2023-04-09T09:30:51.959Z,100749.25
2023-04-09T09:33:19.694Z,100754.81
2023-04-09T09:35:48.285Z,100748.53
2023-04-09T09:38:16.764Z,100745.22
2023-04-09T09:40:44.400Z,100739.63
2023-04-09T09:43:14.148Z,100752.38
2023-04-09T09:45:43.667Z,100743.44
2023-04-09T09:48:11.546Z,100742.53
2023-04-09T09:50:40.192Z,100740.13
2023-04-09T09:53:07.957Z,100739.34
2023-04-09T09:55:35.730Z,100735.94
2023-04-09T09:58:04.018Z,100736.13
2023-04-09T10:00:31.842Z,100734.28
2023-04-09T10:03:00.190Z,100728.88
2023-04-09T10:05:29.534Z,100725.66
2023-04-09T10:07:57.293Z,100721.16
2023-04-09T10:10:25.025Z,100718.31
2023-04-09T10:12:52.909Z,100727.94
2023-04-09T10:15:21.024Z,100717.41
2023-04-09T10:17:48.751Z,100706.13
2023-04-09T10:20:16.882Z,100713.22
2023-04-09T10:22:44.643Z,100713.03
2023-04-09T10:25:12.425Z,100710.38
2023-04-09T10:27:40.472Z,100711.50
2023-04-09T10:30:10.880Z,100710.44
2023-04-09T10:32:38.584Z,100709.28
2023-04-09T10:35:07.220Z,100713.09
2023-04-09T10:37:35.125Z,100707.59
2023-04-09T10:40:03.466Z,100695.09
2023-04-09T10:42:33.127Z,100699.06
2023-04-09T10:45:01.100Z,100700.72
2023-04-09T10:47:29.117Z,100695.03
2023-04-09T10:49:56.841Z,100707.19
2023-04-09T10:52:24.731Z,100698.72
2023-04-09T10:54:52.609Z,100707.78
2023-04-09T10:57:20.900Z,100704.44
2023-04-09T10:59:48.686Z,100694.78
2023-04-09T11:02:16.411Z,100688.75
2023-04-09T11:04:44.974Z,100686.50
2023-04-09T11:07:13.409Z,100692.56
2023-04-09T11:09:41.161Z,100689.53
2023-04-09T11:12:08.845Z,100687.56
2023-04-09T11:14:36.848Z,100681.34
2023-04-09T11:17:04.964Z,100682.44
2023-04-09T11:19:32.779Z,100684.56
2023-04-09T11:22:00.707Z,100677.94
2023-04-09T11:24:28.471Z,100687.06
2023-04-09T11:26:56.970Z,100678.28
2023-04-09T11:29:24.839Z,100678.63
2023-04-09T11:31:52.791Z,100674.16
2023-04-09T11:34:20.758Z,100656.28
2023-04-09T11:36:48.528Z,100658.97
2023-04-09T11:39:16.367Z,100656.72
2023-04-09T11:41:44.515Z,100665.13
2023-04-09T11:44:12.276Z,100661.66
2023-04-09T11:46:40.146Z,100663.91
2023-04-09T11:49:08.436Z,100667.72
2023-04-09T11:51:36.301Z,100672.78
2023-04-09T11:54:04.782Z,100664.69
2023-04-09T11:56:32.903Z,100670.88
2023-04-09T11:59:00.682Z,100677.53
2023-04-09T12:01:28.477Z,100680.91
2023-04-09T12:03:56.402Z,100665.97
2023-04-09T12:06:25.327Z,100663.22
2023-04-09T12:08:53.545Z,100664.88
2023-04-09T12:11:21.902Z,100671.78
2023-04-09T12:13:49.727Z,100669.66
2023-04-09T12:16:17.564Z,100667.09
2023-04-09T12:18:45.443Z,100672.84
2023-04-09T12:21:13.367Z,100667.66
2023-04-09T12:23:41.204Z,100668.59
2023-04-09T12:26:09.019Z,100667.34
2023-04-09T12:28:37.017Z,100667.03
2023-04-09T12:31:05.236Z,100663.38
2023-04-09T12:33:34.179Z,100657.03
2023-04-09T12:36:02.024Z,100664.28
2023-04-09T12:38:29.946Z,100667.59
2023-04-09T12:40:57.651Z,100660.34
2023-04-09T12:43:25.898Z,100653.75
2023-04-09T12:45:54.146Z,100655.16
2023-04-09T12:48:22.095Z,100660.13
2023-04-09T12:50:50.085Z,100660.09
2023-04-09T12:53:17.837Z,100652.41
2023-04-09T12:55:46.519Z,100651.72
2023-04-09T12:58:14.966Z,100648.59
2023-04-09T13:00:42.724Z,100646.38
2023-04-09T13:03:10.820Z,100642.44
2023-04-09T13:05:38.759Z,100645.03
2023-04-09T13:08:07.729Z,100639.56
2023-04-09T13:10:35.912Z,100643.16
2023-04-09T13:13:03.851Z,100651.16
2023-04-09T13:15:31.770Z,100638.09
2023-04-09T13:18:00.131Z,100635.78
2023-04-09T13:20:28.532Z,100639.63
2023-04-09T13:22:56.296Z,100636.81
2023-04-09T13:25:24.088Z,100638.81
2023-04-09T13:27:51.832Z,100636.63
2023-04-09T13:30:19.485Z,100635.03
2023-04-09T13:32:47.635Z,100635.38
2023-04-09T13:35:15.836Z,100634.47
2023-04-09T13:37:43.572Z,100626.75
2023-04-09T13:40:11.754Z,100625.09
2023-04-09T13:42:39.499Z,100617.28
2023-04-09T13:45:07.631Z,100618.50
2023-04-09T13:47:35.443Z,100617.59
2023-04-09T13:50:03.411Z,100622.50
2023-04-09T13:52:31.254Z,100618.16
2023-04-09T13:54:59.129Z,100629.38
2023-04-09T13:57:27.938Z,100616.44
2023-04-09T13:59:55.852Z,100614.59
2023-04-09T14:02:23.881Z,100607.97
2023-04-09T14:04:52.743Z,100603.28
2023-04-09T14:07:20.760Z,100595.44
2023-04-09T14:09:48.535Z,100590.13
2023-04-09T14:12:16.474Z,100585.78
2023-04-09T14:14:44.252Z,100579.25
2023-04-09T14:17:11.967Z,100582.41
2023-04-09T14:19:39.891Z,100580.25
2023-04-09T14:22:09.320Z,100573.91
2023-04-09T14:24:40.277Z,100582.38
2023-04-09T14:27:08.425Z,100588.19
2023-04-09T14:29:36.067Z,100590.25
2023-04-09T14:32:03.804Z,100598.59
2023-04-09T14:34:31.880Z,100589.19
2023-04-09T14:36:59.688Z,100587.53
2023-04-09T14:39:27.587Z,100585.13
2023-04-09T14:41:57.303Z,100575.31
2023-04-09T14:44:26.497Z,100573.38
2023-04-09T14:46:55.393Z,100569.13
2023-04-09T14:49:23.185Z,100573.03
2023-04-09T14:51:50.994Z,100567.47
2023-04-09T14:54:18.902Z,100565.84
2023-04-09T14:56:46.863Z,100555.88
2023-04-09T14:59:15.034Z,100577.34
2023-04-09T15:01:43.092Z,100574.97
2023-04-09T15:04:11.005Z,100574.22
2023-04-09T15:06:38.912Z,100572.19
2023-04-09T15:09:07.199Z,100570.59
2023-04-09T15:11:35.487Z,100564.63
2023-04-09T15:14:03.326Z,100555.19
2023-04-09T15:16:33.549Z,100557.56
2023-04-09T15:19:02.920Z,100559.59
2023-04-09T15:21:31.689Z,100555.00
2023-04-09T15:23:59.783Z,100555.13
2023-04-09T15:26:28.391Z,100549.91
2023-04-09T15:28:56.107Z,100558.94
2023-04-09T15:31:24.083Z,100562.81
2023-04-09T15:33:52.062Z,100564.53
2023-04-09T15:36:20.187Z,100551.41
2023-04-09T15:38:48.411Z,100554.56
2023-04-09T15:41:17.377Z,100571.19
2023-04-09T15:43:45.264Z,100566.47
2023-04-09T15:46:13.257Z,100564.72
2023-04-09T15:48:42.394Z,100565.94
2023-04-09T15:51:11.437Z,100569.78
2023-04-09T15:53:39.245Z,100568.78
2023-04-09T15:56:07.101Z,100564.28
2023-04-09T15:58:36.309Z,100570.78
2023-04-09T16:01:04.601Z,100560.88
2023-04-09T16:03:37.353Z,100555.00
2023-04-09T16:06:07.603Z,100550.09
2023-04-09T16:08:35.526Z,100554.38
2023-04-09T16:11:03.444Z,100552.97
2023-04-09T16:13:31.481Z,100549.94
2023-04-09T16:15:59.640Z,100540.66
2023-04-09T16:18:27.461Z,100556.69
2023-04-09T16:20:55.214Z,100560.88
2023-04-09T16:23:24.162Z,100560.53
2023-04-09T16:25:52.626Z,100564.47
2023-04-09T16:28:21.796Z,100560.47
2023-04-09T16:30:49.587Z,100557.03
2023-04-09T16:33:17.510Z,100557.47
2023-04-09T16:35:45.504Z,100565.38
2023-04-09T16:38:13.842Z,100566.63
2023-04-09T16:40:41.727Z,100562.81
2023-04-09T16:43:09.539Z,100557.97
2023-04-09T16:45:37.384Z,100567.47
2023-04-09T16:48:06.582Z,100574.34
2023-04-09T16:50:34.756Z,100576.94
2023-04-09T16:53:04.603Z,100591.69
2023-04-09T16:55:32.929Z,100579.72
2023-04-09T16:58:00.755Z,100572.16
2023-04-09T17:00:29.052Z,100568.94
2023-04-09T17:02:58.534Z,100565.44
2023-04-09T17:05:26.735Z,100568.28
2023-04-09T17:07:54.703Z,100566.50
2023-04-09T17:10:22.538Z,100569.97
2023-04-09T17:12:50.891Z,100568.91
2023-04-09T17:15:19.370Z,100559.81
2023-04-09T17:17:51.526Z,100557.03
2023-04-09T17:20:19.360Z,100551.56
2023-04-09T17:22:47.435Z,100539.81
2023-04-09T17:25:15.195Z,100544.19
2023-04-09T17:27:45.764Z,100554.81
2023-04-09T17:30:14.037Z,100543.13
2023-04-09T17:32:43.902Z,100548.25
2023-04-09T17:35:11.773Z,100554.94
2023-04-09T17:37:39.750Z,100555.53
2023-04-09T17:40:08.018Z,100546.28
2023-04-09T17:42:35.894Z,100551.41
2023-04-09T17:45:04.843Z,100539.72
2023-04-09T17:47:32.863Z,100550.03
2023-04-09T17:50:01.754Z,100560.47
2023-04-09T17:52:30.190Z,100559.34
2023-04-09T17:54:58.606Z,100563.59
2023-04-09T17:57:26.444Z,100570.50
2023-04-09T17:59:54.423Z,100567.56
2023-04-09T18:02:22.574Z,100574.56
2023-04-09T18:04:51.343Z,100569.91
2023-04-09T18:07:19.740Z,100575.72
2023-04-09T18:09:47.748Z,100581.72
2023-04-09T18:12:16.054Z,100568.09
2023-04-09T18:14:44.079Z,100573.06
2023-04-09T18:17:14.567Z,100556.66
2023-04-09T18:19:43.931Z,100564.44
2023-04-09T18:22:11.754Z,100568.88
2023-04-09T18:24:40.121Z,100575.94
2023-04-09T18:27:08.017Z,100579.38
2023-04-09T18:29:36.672Z,100585.59
2023-04-09T18:32:04.840Z,100581.97
2023-04-09T18:34:32.659Z,100585.41
2023-04-09T18:37:00.533Z,100586.16
2023-04-09T18:39:28.431Z,100583.50
2023-04-09T18:41:57.620Z,100582.53
2023-04-09T18:44:26.175Z,100584.97
2023-04-09T18:46:54.479Z,100589.22
2023-04-09T18:49:22.327Z,100584.84
2023-04-09T18:51:50.192Z,100588.22
2023-04-09T18:54:18.537Z,100600.41
2023-04-09T18:56:46.662Z,100599.13
2023-04-09T18:59:14.647Z,100600.66
2023-04-09T19:01:42.658Z,100605.84
2023-04-09T19:04:10.772Z,100605.69
2023-04-09T19:06:39.074Z,100605.53
2023-04-09T19:09:08.140Z,100599.94
2023-04-09T19:11:35.889Z,100603.13
2023-04-09T19:14:03.708Z,100596.28
2023-04-09T19:16:31.919Z,100599.22
2023-04-09T19:19:00.198Z,100599.59
2023-04-09T19:21:29.129Z,100601.81
2023-04-09T19:23:57.175Z,100596.97
2023-04-09T19:26:25.245Z,100600.97
2023-04-09T19:28:53.356Z,100612.16
2023-04-09T19:31:21.884Z,100604.84
2023-04-09T19:33:49.993Z,100602.69
2023-04-09T19:36:17.764Z,100603.13
2023-04-09T19:38:45.621Z,100600.88
2023-04-09T19:41:13.537Z,100603.81
2023-04-09T19:43:42.636Z,100604.19
2023-04-09T19:46:10.569Z,100608.81
2023-04-09T19:48:38.472Z,100614.47
2023-04-09T19:51:07.155Z,100604.22
2023-04-09T19:53:36.682Z,100613.22
2023-04-09T19:56:04.899Z,100607.34
2023-04-09T19:58:33.963Z,100604.78
2023-04-09T20:01:02.557Z,100608.63
2023-04-09T20:03:30.724Z,100597.41
2023-04-09T20:05:58.794Z,100596.66
2023-04-09T20:08:26.882Z,100590.75
2023-04-09T20:10:54.894Z,100598.81
2023-04-09T20:13:23.664Z,100592.81
2023-04-09T20:15:51.922Z,100593.09
2023-04-09T20:18:19.785Z,100594.16
2023-04-09T20:20:48.122Z,100590.03
2023-04-09T20:23:16.308Z,100591.19
2023-04-09T20:25:44.075Z,100582.63
2023-04-09T20:28:11.989Z,100586.41
2023-04-09T20:30:39.936Z,100582.22
2023-04-09T20:33:07.853Z,100583.34
2023-04-09T20:35:37.754Z,100579.16
2023-04-09T20:38:05.679Z,100585.56
2023-04-09T20:40:33.510Z,100584.97
2023-04-09T20:43:01.411Z,100586.94
2023-04-09T20:45:29.821Z,100581.72
2023-04-09T20:47:58.047Z,100590.53
2023-04-09T20:50:26.133Z,100591.56
2023-04-09T20:52:54.117Z,100589.94
2023-04-09T20:55:23.311Z,100598.66
2023-04-09T20:57:53.657Z,100599.53
2023-04-09T21:00:24.861Z,100589.06
2023-04-09T21:02:54.398Z,100579.59
2023-04-09T21:05:24.355Z,100582.50
2023-04-09T21:07:54.818Z,100583.72
2023-04-09T21:10:23.525Z,100589.16
2023-04-09T21:12:51.399Z,100586.28
2023-04-09T21:15:19.437Z,100586.88
2023-04-09T21:17:47.386Z,100581.22
2023-04-09T21:20:17.669Z,100587.78
2023-04-09T21:22:45.898Z,100583.75
2023-04-09T21:25:15.353Z,100579.72
2023-04-09T21:27:43.585Z,100578.28
2023-04-09T21:30:11.544Z,100576.03
2023-04-09T21:32:39.878Z,100575.59
2023-04-09T21:35:07.961Z,100571.56
2023-04-09T21:37:35.900Z,100569.06
2023-04-09T21:40:04.286Z,100565.59
2023-04-09T21:42:32.866Z,100570.00
2023-04-09T21:45:02.361Z,100570.94
2023-04-09T21:47:30.609Z,100569.16
2023-04-09T21:49:58.840Z,100569.94
2023-04-09T21:52:26.610Z,100573.41
2023-04-09T21:54:54.418Z,100569.75
2023-04-09T21:57:23.261Z,100565.34
2023-04-09T21:59:51.502Z,100565.22
2023-04-09T22:02:19.587Z,100563.47
2023-04-09T22:04:47.513Z,100572.25
2023-04-09T22:07:15.620Z,100568.75
2023-04-09T22:09:43.817Z,100560.03
2023-04-09T22:12:12.306Z,100558.47
2023-04-09T22:14:41.774Z,100566.66
2023-04-09T22:17:09.737Z,100570.50
2023-04-09T22:19:37.585Z,100568.84
2023-04-09T22:22:05.731Z,100568.16
2023-04-09T22:24:35.137Z,100571.03
2023-04-09T22:27:02.970Z,100571.34
2023-04-09T22:29:30.768Z,100576.03
2023-04-09T22:31:58.614Z,100574.53
2023-04-09T22:34:26.683Z,100574.78
2023-04-09T22:36:54.503Z,100578.44
2023-04-09T22:39:22.906Z,100571.53
2023-04-09T22:41:50.638Z,100568.91
2023-04-09T22:44:18.434Z,100569.75
2023-04-09T22:46:47.025Z,100569.75
2023-04-09T22:49:14.947Z,100563.44
2023-04-09T22:51:42.823Z,100564.28
2023-04-09T22:54:12.178Z,100567.03
2023-04-09T22:56:41.114Z,100562.69
2023-04-09T22:59:11.330Z,100576.03
2023-04-09T23:01:40.043Z,100569.09
2023-04-09T23:04:08.002Z,100584.19
2023-04-09T23:06:36.196Z,100582.66
2023-04-09T23:09:04.412Z,100593.34
2023-04-09T23:11:32.822Z,100596.13
2023-04-09T23:14:00.678Z,100594.41
2023-04-09T23:16:28.410Z,100602.41
2023-04-09T23:18:56.485Z,100597.13
2023-04-09T23:21:24.516Z,100594.50
2023-04-09T23:23:52.882Z,100594.41
2023-04-09T23:26:20.924Z,100599.59
2023-04-09T23:28:48.718Z,100599.72
2023-04-09T23:31:16.376Z,100598.06
2023-04-09T23:33:44.109Z,100592.06
2023-04-09T23:36:12.237Z,100593.25
2023-04-09T23:38:41.157Z,100594.25
2023-04-09T23:41:08.833Z,100594.38
2023-04-09T23:43:36.511Z,100586.84
2023-04-09T23:46:04.170Z,100584.56
2023-04-09T23:48:32.184Z,100588.53
2023-04-09T23:51:01.206Z,100581.88
2023-04-09T23:53:28.826Z,100583.91
2023-04-09T23:55:56.524Z,100571.78
2023-04-09T23:58:24.241Z,100574.63
